This is the latest recevied weather packets stored in our database for station/object KI4MRC. If no packets are shown the sender has not sent any weather packets the latest 10 day(s).
| Time | Temp. | Humidity | Pressure | Rain* | Wind** | Luminosity | Snow |
|---|---|---|---|---|---|---|---|
| 1777910478 | 25.56° C | 81% | 1015.7 hPa | 0 mm | - | 442 W/m² | - |
| 1777910175 | 25.56° C | 82% | 1015.7 hPa | 0 mm | - | 412 W/m² | - |
| 1777909872 | 25.56° C | 83% | 1015.8 hPa | 0 mm | - | 297 W/m² | - |
| 1777909569 | 25° C | 86% | 1015.7 hPa | 0 mm | - | 690 W/m² | - |
| 1777909266 | 24.44° C | 89% | 1015.7 hPa | 0 mm | - | 1167 W/m² | - |
| 1777908964 | 24.44° C | 88% | 1015.9 hPa | 0 mm | - | 148 W/m² | - |
| 1777908662 | 24.44° C | 88% | 1015.7 hPa | 0 mm | - | 473 W/m² | - |
| 1777908358 | 24.44° C | 86% | 1015.8 hPa | 0 mm | - | 250 W/m² | - |
| 1777908055 | 25.56° C | 84% | 1015.7 hPa | 0 mm | - | 170 W/m² | - |
| 1777907750 | 25.56° C | 85% | 1015.8 hPa | 0 mm | - | 865 W/m² | - |
| 1777907445 | 25.56° C | 83% | 1015.8 hPa | 0 mm | - | 473 W/m² | - |
| 1777907143 | 25.56° C | 84% | 1015.8 hPa | 0 mm | - | 748 W/m² | - |
| 1777906840 | 25° C | 87% | 1015.6 hPa | 0 mm | - | 527 W/m² | - |
| 1777906537 | 25° C | 86% | 1015.9 hPa | 0 mm | - | 859 W/m² | - |
| 1777906232 | 24.44° C | 90% | 1015.6 hPa | 0 mm | - | 889 W/m² | - |
| 1777905929 | 23.89° C | 90% | 1015.5 hPa | 0 mm | - | 232 W/m² | - |
| 1777905626 | 23.89° C | 92% | 1015.5 hPa | 0 mm | - | 658 W/m² | - |
| 1777905323 | 23.33° C | 92% | 1015.6 hPa | 0 mm | - | 257 W/m² | - |
| 1777905021 | 22.78° C | 93% | 1015.5 hPa | 0 mm | - | 286 W/m² | - |
| 1777904718 | 22.78° C | 93% | 1015.4 hPa | 0.51 mm | - | 240 W/m² | - |
| 1777904415 | 22.78° C | 92% | 1015.5 hPa | 0.51 mm | - | 158 W/m² | - |
| 1777904111 | 22.78° C | 91% | 1015.5 hPa | 0 mm | - | 198 W/m² | - |
| 1777903808 | 22.78° C | 91% | 1015.5 hPa | 0 mm | - | 190 W/m² | - |
| 1777903505 | 22.78° C | 91% | 1015.5 hPa | 0 mm | - | 171 W/m² | - |
| 1777903201 | 22.78° C | 92% | 1015.4 hPa | 0 mm | - | 206 W/m² | - |
* Rain latest hour (hover to see other rain measurements)
** Current wind speed in m/s (hover to see current wind gust speed)